Time;durP1;ratioP1;P1;durP2;ratioP2;P2;SDS_P1;SDS_P2;PMS_P1;PMS_P2;Temp;Humidity;BMP_temperature;BMP_pressure;BME280_temperature;BME280_humidity;BME280_pressure;Samples;Min_cycle;Max_cycle;Signal;HPM_P1;HPM_P2
2023/08/28 00:01:09;;;;;;;7.53;1.55;;;;;;;12.72;100.00;101332.41;5068340;28;20111;-86
2023/08/28 00:03:35;;;;;;;5.18;1.48;;;;;;;12.72;100.00;101335.94;5052013;28;20045;-86
2023/08/28 00:06:02;;;;;;;7.38;2.58;;;;;;;12.71;100.00;101326.19;5052773;28;20036;-86
2023/08/28 00:08:28;;;;;;;5.78;1.90;;;;;;;12.72;100.00;101337.81;5051687;28;20383;-87
2023/08/28 00:10:56;;;;;;;6.93;2.03;;;;;;;12.67;100.00;101324.00;5051730;28;20360;-87
2023/08/28 00:13:24;;;;;;;6.50;1.90;;;;;;;12.66;100.00;101323.16;5068340;28;20075;-86
2023/08/28 00:15:51;;;;;;;4.50;1.98;;;;;;;12.67;100.00;101319.44;5051493;28;20033;-86
2023/08/28 00:18:16;;;;;;;6.85;1.77;;;;;;;12.66;100.00;101312.38;5051804;28;20078;-87
2023/08/28 00:20:43;;;;;;;4.30;1.58;;;;;;;12.65;100.00;101316.09;5052958;28;20028;-87
2023/08/28 00:23:09;;;;;;;9.00;2.38;;;;;;;12.63;100.00;101314.59;5051780;28;20029;-86
2023/08/28 00:25:36;;;;;;;8.43;1.85;;;;;;;12.61;100.00;101312.06;5055990;28;20025;-86
2023/08/28 00:28:02;;;;;;;6.50;1.90;;;;;;;12.63;100.00;101315.44;5055177;28;20091;-87
2023/08/28 00:30:27;;;;;;;5.55;1.95;;;;;;;12.59;100.00;101311.38;5038648;28;20024;-86
2023/08/28 00:32:53;;;;;;;9.02;2.20;;;;;;;12.61;100.00;101317.47;5054881;28;20400;-87
2023/08/28 00:35:20;;;;;;;5.32;1.80;;;;;;;12.61;100.00;101314.75;5055118;28;20025;-87
2023/08/28 00:37:45;;;;;;;10.20;2.10;;;;;;;12.58;100.00;101304.31;5055277;28;20029;-86
2023/08/28 00:40:13;;;;;;;8.80;2.17;;;;;;;12.57;100.00;101313.44;5038291;28;20040;-86
2023/08/28 00:42:39;;;;;;;9.43;2.17;;;;;;;12.51;100.00;101301.47;5038695;28;20074;-86
2023/08/28 00:45:05;;;;;;;10.68;2.10;;;;;;;12.52;100.00;101292.38;5071249;28;20422;-87
2023/08/28 00:47:32;;;;;;;7.47;1.70;;;;;;;12.58;100.00;101298.94;5054775;28;20044;-87
2023/08/28 00:49:57;;;;;;;6.32;1.80;;;;;;;12.59;100.00;101306.00;5021808;28;20045;-87
2023/08/28 00:52:25;;;;;;;7.00;1.70;;;;;;;12.53;100.00;101299.44;5022050;28;20041;-85
2023/08/28 00:54:51;;;;;;;7.20;1.90;;;;;;;12.52;100.00;101300.47;5055093;28;20029;-86
2023/08/28 00:57:18;;;;;;;7.47;2.00;;;;;;;12.47;100.00;101297.47;5038406;28;20044;-86
2023/08/28 00:59:44;;;;;;;7.45;1.80;;;;;;;12.48;100.00;101301.81;5038253;28;20449;-86
2023/08/28 01:02:10;;;;;;;5.00;2.00;;;;;;;12.49;100.00;101299.97;5054661;28;20068;-86
2023/08/28 01:04:35;;;;;;;6.50;1.60;;;;;;;12.51;100.00;101292.53;5037762;28;20048;-86
2023/08/28 01:07:22;;;;;;;6.72;1.88;;;;;;;12.54;100.00;101302.97;5038046;28;20033;-86
2023/08/28 01:09:55;;;;;;;9.75;1.95;;;;;;;12.60;100.00;101301.47;5038548;28;20495;-86
2023/08/28 01:12:46;;;;;;;6.63;1.80;;;;;;;12.56;100.00;101294.72;5054698;28;20033;-87
2023/08/28 01:15:18;;;;;;;7.70;2.55;;;;;;;12.56;100.00;101294.72;5038036;28;20539;-86
2023/08/28 01:17:49;;;;;;;6.82;1.70;;;;;;;12.56;100.00;101309.03;5054200;28;20052;-86
2023/08/28 01:20:15;;;;;;;4.50;1.58;;;;;;;12.59;100.00;101305.16;5020612;28;20041;-86
2023/08/28 01:23:21;;;;;;;8.60;1.67;;;;;;;12.59;100.00;101307.84;5054372;28;20089;-87
2023/08/28 01:25:48;;;;;;;10.60;1.73;;;;;;;12.54;100.00;101298.44;5070668;28;20056;-87
2023/08/28 01:28:14;;;;;;;3.58;1.48;;;;;;;12.60;100.00;101306.84;5055074;28;20040;-86
2023/08/28 01:30:41;;;;;;;6.35;1.92;;;;;;;12.63;100.00;101301.94;5055282;28;20037;-87
2023/08/28 01:33:06;;;;;;;7.45;1.65;;;;;;;12.63;100.00;101306.50;5053773;28;20471;-86
2023/08/28 01:35:33;;;;;;;5.90;1.67;;;;;;;12.58;100.00;101293.53;5053997;28;20414;-86
2023/08/28 01:38:19;;;;;;;5.13;1.48;;;;;;;12.65;100.00;101304.44;5054027;28;20434;-86
2023/08/28 01:41:01;;;;;;;8.10;1.60;;;;;;;12.64;100.00;101309.00;5037444;28;20044;-87
2023/08/28 01:43:47;;;;;;;9.75;1.63;;;;;;;12.64;100.00;101305.47;5054406;28;20036;-86
2023/08/28 01:46:14;;;;;;;5.10;1.88;;;;;;;12.64;100.00;101303.59;5053863;28;20037;-86
2023/08/28 01:48:47;;;;;;;5.13;1.70;;;;;;;12.66;100.00;101311.53;5037260;28;20086;-86
2023/08/28 01:51:12;;;;;;;5.88;1.50;;;;;;;12.64;100.00;101309.00;5070284;28;20044;-86
2023/08/28 01:53:38;;;;;;;6.10;1.48;;;;;;;12.64;100.00;101313.56;5037117;28;20040;-86
2023/08/28 01:56:07;;;;;;;7.22;1.67;;;;;;;12.67;100.00;101318.59;5053407;28;20047;-87
2023/08/28 01:58:44;;;;;;;7.15;1.80;;;;;;;12.66;100.00;101309.69;5054466;28;20029;-86
2023/08/28 02:01:10;;;;;;;9.05;2.05;;;;;;;12.66;100.00;101306.16;5053611;28;20035;-87
2023/08/28 02:03:38;;;;;;;5.47;1.58;;;;;;;12.62;100.00;101305.66;5037064;28;20029;-86
2023/08/28 02:06:04;;;;;;;8.38;1.52;;;;;;;12.53;100.00;101301.31;5053454;28;20032;-86
2023/08/28 02:08:30;;;;;;;5.35;1.55;;;;;;;12.49;100.00;101305.34;5036579;28;20037;-87
2023/08/28 02:10:56;;;;;;;3.63;1.70;;;;;;;12.39;100.00;101302.06;5052973;28;20059;-86
2023/08/28 02:13:22;;;;;;;5.03;1.48;;;;;;;12.21;100.00;101295.03;5053096;28;20025;-85
2023/08/28 02:15:48;;;;;;;2.88;1.30;;;;;;;12.18;100.00;101289.16;5053182;28;20025;-85
2023/08/28 02:18:13;;;;;;;5.60;1.45;;;;;;;12.14;100.00;101293.19;5020305;28;20098;-85
2023/08/28 02:20:39;;;;;;;5.75;1.48;;;;;;;12.14;100.00;101287.78;5036473;28;20032;-86
2023/08/28 02:23:05;;;;;;;4.47;1.60;;;;;;;12.19;100.00;101291.66;5054216;28;20025;-86
2023/08/28 02:25:30;;;;;;;5.13;1.90;;;;;;;12.23;100.00;101286.78;5036401;28;20553;-86
2023/08/28 02:27:57;;;;;;;7.55;2.10;;;;;;;12.22;100.00;101280.50;5052805;28;20025;-86
2023/08/28 02:30:24;;;;;;;4.25;1.65;;;;;;;12.29;100.00;101289.59;5052782;28;20037;-86
2023/08/28 02:32:50;;;;;;;5.22;1.30;;;;;;;12.30;100.00;101285.91;5035390;28;20050;-86
2023/08/28 02:35:16;;;;;;;5.18;1.50;;;;;;;12.35;100.00;101287.22;5052568;28;20033;-87
2023/08/28 02:37:42;;;;;;;7.38;1.67;;;;;;;12.37;100.00;101287.91;5053090;28;20521;-86
2023/08/28 02:40:10;;;;;;;5.10;1.42;;;;;;;12.34;100.00;101286.38;5053063;28;20479;-86
2023/08/28 02:42:35;;;;;;;4.45;1.52;;;;;;;12.35;100.00;101287.22;5036279;28;20127;-86
2023/08/28 02:45:02;;;;;;;5.70;1.40;;;;;;;12.32;100.00;101285.72;5086219;28;20071;-86
2023/08/28 02:47:29;;;;;;;5.95;1.75;;;;;;;12.35;100.00;101292.63;5052483;28;20029;-86
2023/08/28 02:49:55;;;;;;;6.88;1.40;;;;;;;12.35;100.00;101288.06;5052324;28;20037;-86
2023/08/28 02:52:21;;;;;;;4.40;1.50;;;;;;;12.34;100.00;101291.78;5035603;28;20049;-86
2023/08/28 02:54:46;;;;;;;13.48;2.15;;;;;;;12.34;100.00;101296.34;5052441;28;20387;-86
2023/08/28 02:57:12;;;;;;;6.40;1.90;;;;;;;12.30;100.00;101301.22;5052628;28;20086;-86
2023/08/28 02:59:38;;;;;;;4.53;1.40;;;;;;;12.26;100.00;101300.75;5053434;28;20021;-86
2023/08/28 03:02:04;;;;;;;4.45;1.63;;;;;;;12.25;100.00;101299.06;5052415;28;20094;-86
2023/08/28 03:04:30;;;;;;;4.53;1.35;;;;;;;12.24;100.00;101302.75;5052970;28;20045;-85
2023/08/28 03:06:55;;;;;;;6.93;1.67;;;;;;;12.24;100.00;101304.63;5052169;28;20033;-86
2023/08/28 03:09:21;;;;;;;4.60;1.70;;;;;;;12.26;100.00;101298.03;5053661;28;20029;-86
2023/08/28 03:11:47;;;;;;;4.30;1.58;;;;;;;12.25;100.00;101299.06;5052364;28;20029;-86
2023/08/28 03:14:13;;;;;;;12.68;2.90;;;;;;;12.29;100.00;101289.59;5035590;28;20455;-86
2023/08/28 03:16:38;;;;;;;3.45;1.52;;;;;;;12.28;100.00;101292.50;5053435;28;20044;-87
2023/08/28 03:19:04;;;;;;;4.40;1.60;;;;;;;12.34;100.00;101293.66;5052250;28;20112;-86
2023/08/28 03:21:33;;;;;;;5.00;1.70;;;;;;;12.34;100.00;101291.78;5052234;28;20036;-86
2023/08/28 03:24:00;;;;;;;4.30;1.63;;;;;;;12.29;100.00;101284.22;5035863;28;20036;-86
2023/08/28 03:26:28;;;;;;;5.25;1.55;;;;;;;12.35;100.00;101292.63;5035341;28;20044;-86
2023/08/28 03:28:54;;;;;;;7.38;1.67;;;;;;;12.38;100.00;101293.09;5052096;28;20029;-86
2023/08/28 03:31:23;;;;;;;5.80;1.52;;;;;;;12.39;100.00;101285.88;5053090;28;20060;-87
2023/08/28 03:33:49;;;;;;;11.13;2.00;;;;;;;12.36;100.00;101281.66;5035408;28;20037;-86
2023/08/28 03:36:14;;;;;;;7.38;2.22;;;;;;;12.35;100.00;101287.22;5035545;28;20368;-86
2023/08/28 03:38:41;;;;;;;8.27;2.35;;;;;;;12.32;100.00;101291.09;5051856;28;20036;-86
2023/08/28 03:41:08;;;;;;;5.00;2.13;;;;;;;12.28;100.00;101279.00;5051827;28;20041;-86
2023/08/28 03:43:34;;;;;;;8.43;2.10;;;;;;;12.27;100.00;101280.00;5052213;28;20045;-85
2023/08/28 03:46:00;;;;;;;6.97;2.63;;;;;;;12.27;100.00;101271.91;5051825;28;20084;-85
2023/08/28 03:48:25;;;;;;;9.73;2.53;;;;;;;12.25;100.00;101266.72;5035083;28;20501;-86
2023/08/28 03:50:52;;;;;;;6.95;2.78;;;;;;;12.25;100.00;101272.09;5051913;28;20040;-87
2023/08/28 03:53:18;;;;;;;7.70;2.53;;;;;;;12.24;100.00;101265.00;5053273;28;20037;-86
2023/08/28 03:55:44;;;;;;;10.65;2.63;;;;;;;12.23;100.00;101257.94;5051882;28;20395;-86
2023/08/28 03:58:10;;;;;;;8.20;2.67;;;;;;;12.29;100.00;101264.50;5051804;28;20127;-86
2023/08/28 04:00:35;;;;;;;5.93;2.90;;;;;;;12.31;100.00;101274.09;5055332;28;20167;-86
2023/08/28 04:03:01;;;;;;;7.45;2.67;;;;;;;12.32;100.00;101273.06;5039109;28;20533;-86
2023/08/28 04:05:27;;;;;;;7.95;2.50;;;;;;;12.36;100.00;101270.88;5056269;28;20531;-86
2023/08/28 04:07:53;;;;;;;10.40;3.65;;;;;;;12.36;100.00;101267.31;5022301;28;20033;-86
2023/08/28 04:10:20;;;;;;;9.57;2.85;;;;;;;12.34;100.00;101272.06;5055386;28;20506;-86
2023/08/28 04:12:45;;;;;;;9.90;2.80;;;;;;;12.32;100.00;101274.94;5055689;28;20025;-87
2023/08/28 04:15:11;;;;;;;10.10;3.00;;;;;;;12.30;100.00;101280.50;5038812;28;20041;-86
2023/08/28 04:17:37;;;;;;;9.45;3.00;;;;;;;12.25;100.00;101269.41;5022169;28;20045;-86
2023/08/28 04:20:12;;;;;;;7.60;2.70;;;;;;;12.29;100.00;101276.13;5055275;28;20071;-87
2023/08/28 04:22:46;;;;;;;7.10;2.70;;;;;;;12.29;100.00;101288.75;5039526;28;20025;-88
2023/08/28 04:25:13;;;;;;;7.50;2.50;;;;;;;12.34;100.00;101289.09;5039776;28;20087;-86
2023/08/28 04:27:40;;;;;;;9.63;2.90;;;;;;;12.31;100.00;101295.66;5038658;28;20048;-86
2023/08/28 04:30:07;;;;;;;11.13;2.90;;;;;;;12.29;100.00;101295.00;5022566;28;20037;-87
2023/08/28 04:32:34;;;;;;;8.73;2.80;;;;;;;12.28;100.00;101298.72;5022443;28;20036;-86
2023/08/28 04:35:00;;;;;;;14.13;3.40;;;;;;;12.33;100.00;101303.56;5038636;28;20036;-86
2023/08/28 04:37:26;;;;;;;9.95;3.38;;;;;;;12.34;100.00;101307.13;5054611;28;20041;-86
2023/08/28 04:39:51;;;;;;;8.02;2.83;;;;;;;12.33;100.00;101300.88;5055423;28;20033;-85
2023/08/28 04:42:17;;;;;;;7.28;2.65;;;;;;;12.37;100.00;101307.59;5056373;28;20040;-86
2023/08/28 04:44:43;;;;;;;10.38;2.97;;;;;;;12.35;100.00;101309.63;5056108;28;20120;-86
2023/08/28 04:47:09;;;;;;;9.13;2.63;;;;;;;12.35;100.00;101311.50;5056103;28;20031;-85
2023/08/28 04:49:35;;;;;;;7.95;3.20;;;;;;;12.30;100.00;101304.78;5055041;28;20035;-86
2023/08/28 04:52:02;;;;;;;10.73;2.85;;;;;;;12.38;100.00;101317.38;5056118;28;20021;-86
2023/08/28 04:54:28;;;;;;;7.25;3.80;;;;;;;12.37;100.00;101310.31;5054554;28;20549;-86
2023/08/28 04:56:57;;;;;;;11.02;3.03;;;;;;;12.36;100.00;101311.34;5054817;28;20109;-86
2023/08/28 04:59:22;;;;;;;7.10;2.95;;;;;;;12.35;100.00;101308.78;5038300;28;20044;-87
2023/08/28 05:01:48;;;;;;;14.90;3.40;;;;;;;12.32;100.00;101305.44;5054758;28;20037;-87
2023/08/28 05:04:13;;;;;;;10.35;2.85;;;;;;;12.27;100.00;101291.63;5055596;28;20033;-85
2023/08/28 05:06:39;;;;;;;9.75;3.53;;;;;;;12.29;100.00;101297.69;5037679;28;20036;-85
2023/08/28 05:09:05;;;;;;;10.32;3.20;;;;;;;12.25;100.00;101303.59;5055926;28;20040;-86
2023/08/28 05:11:31;;;;;;;7.88;2.88;;;;;;;12.20;100.00;101287.09;5070745;28;20025;-86
2023/08/28 05:13:57;;;;;;;9.02;4.53;;;;;;;12.18;100.00;101291.84;5037759;28;20032;-86
2023/08/28 05:16:23;;;;;;;8.77;2.95;;;;;;;12.19;100.00;101291.66;5053754;28;20041;-85
2023/08/28 05:18:49;;;;;;;5.68;2.72;;;;;;;12.18;100.00;101286.44;5054036;28;20029;-86
2023/08/28 05:21:14;;;;;;;7.88;3.00;;;;;;;12.21;100.00;101280.72;5037507;28;20437;-86
2023/08/28 05:23:40;;;;;;;5.65;2.70;;;;;;;12.19;100.00;101274.63;5054260;28;20084;-86
2023/08/28 05:26:07;;;;;;;10.63;3.45;;;;;;;12.21;100.00;101286.94;5053838;28;20025;-86
2023/08/28 05:28:35;;;;;;;7.32;2.50;;;;;;;12.23;100.00;101294.88;5037383;28;20029;-86
2023/08/28 05:31:04;;;;;;;9.95;3.15;;;;;;;12.22;100.00;101287.78;5070555;28;20086;-87
2023/08/28 05:33:37;;;;;;;7.85;2.58;;;;;;;12.21;100.00;101291.50;5053852;28;20037;-86
2023/08/28 05:36:03;;;;;;;7.30;2.67;;;;;;;12.21;100.00;101291.50;5021284;28;20090;-86
2023/08/28 05:38:30;;;;;;;12.63;3.25;;;;;;;12.17;100.00;101284.75;5053995;28;20055;-86
2023/08/28 05:40:56;;;;;;;12.55;3.00;;;;;;;12.17;100.00;101290.13;5020541;28;20471;-86
2023/08/28 05:43:22;;;;;;;7.40;2.80;;;;;;;12.21;100.00;101296.88;5037168;28;20029;-86
2023/08/28 05:45:47;;;;;;;9.15;3.30;;;;;;;12.20;100.00;101285.25;5054316;28;20060;-86
2023/08/28 05:48:13;;;;;;;7.43;3.25;;;;;;;12.26;100.00;101286.41;5070135;28;20116;-86
2023/08/28 05:50:39;;;;;;;9.38;3.00;;;;;;;12.24;100.00;101280.34;5053383;28;20035;-86
2023/08/28 05:53:06;;;;;;;10.52;3.05;;;;;;;12.30;100.00;101285.03;5038392;28;20065;-86
2023/08/28 05:55:32;;;;;;;8.40;3.20;;;;;;;12.32;100.00;101288.41;5054013;28;20124;-86
2023/08/28 05:57:58;;;;;;;6.60;3.20;;;;;;;12.28;100.00;101285.22;5037068;28;20025;-86
2023/08/28 06:00:25;;;;;;;10.40;3.53;;;;;;;12.31;100.00;101290.28;5053752;28;20033;-86
2023/08/28 06:02:51;;;;;;;7.50;3.35;;;;;;;12.34;100.00;101293.66;5053125;28;20574;-86
2023/08/28 06:05:18;;;;;;;10.07;4.35;;;;;;;12.35;100.00;101295.31;5052624;28;20020;-86
2023/08/28 06:07:44;;;;;;;7.03;3.38;;;;;;;12.37;100.00;101296.00;5069452;28;20029;-85
2023/08/28 06:10:13;;;;;;;7.45;2.92;;;;;;;12.34;100.00;101289.09;5053123;28;20037;-85
2023/08/28 06:12:39;;;;;;;9.00;3.70;;;;;;;12.34;100.00;101294.47;5053751;28;20107;-86
2023/08/28 06:15:05;;;;;;;10.45;3.70;;;;;;;12.35;100.00;101295.31;5036623;28;20440;-86
2023/08/28 06:17:31;;;;;;;7.10;3.30;;;;;;;12.37;100.00;101299.53;5069355;28;20047;-86
2023/08/28 06:19:57;;;;;;;7.40;3.30;;;;;;;12.38;100.00;101298.50;5054448;28;20029;-86
2023/08/28 06:22:23;;;;;;;8.10;3.25;;;;;;;12.38;100.00;101298.50;5052036;28;20383;-86
2023/08/28 06:24:52;;;;;;;8.80;3.38;;;;;;;12.46;100.00;101306.56;5054152;28;20021;-85
2023/08/28 06:27:18;;;;;;;10.63;3.70;;;;;;;12.50;100.00;101301.66;5052997;28;20040;-87
2023/08/28 06:29:44;;;;;;;6.75;3.05;;;;;;;12.49;100.00;101300.81;5020341;28;20040;-85
2023/08/28 06:32:11;;;;;;;10.02;3.38;;;;;;;12.53;100.00;101306.69;5036813;28;20045;-86
2023/08/28 06:34:37;;;;;;;6.47;3.20;;;;;;;12.61;100.00;101303.97;5052959;28;20032;-85
2023/08/28 06:37:02;;;;;;;13.35;4.00;;;;;;;12.70;100.00;101310.16;5052782;28;20029;-87
2023/08/28 06:39:28;;;;;;;12.57;3.58;;;;;;;12.73;100.00;101307.13;5035949;28;20070;-87
2023/08/28 06:41:53;;;;;;;8.55;3.60;;;;;;;12.72;100.00;101311.66;5052483;28;20364;-87
2023/08/28 06:44:19;;;;;;;13.60;3.47;;;;;;;12.73;100.00;101304.44;5052955;28;20535;-86
2023/08/28 06:46:46;;;;;;;7.97;3.38;;;;;;;12.68;100.00;101307.66;5053626;28;20036;-86
2023/08/28 06:49:13;;;;;;;9.45;3.05;;;;;;;12.72;100.00;101317.06;5035540;28;20028;-86
2023/08/28 06:51:39;;;;;;;6.50;2.95;;;;;;;12.74;100.00;101311.50;5051938;28;20025;-87
2023/08/28 06:54:07;;;;;;;9.75;3.47;;;;;;;12.79;100.00;101324.47;5052592;28;20094;-87
2023/08/28 06:56:33;;;;;;;8.15;3.42;;;;;;;12.81;100.00;101317.88;5052395;28;20033;-87
2023/08/28 06:59:00;;;;;;;11.82;3.70;;;;;;;12.86;100.00;101311.94;5052586;28;20073;-88
2023/08/28 07:01:25;;;;;;;7.13;3.20;;;;;;;12.99;100.00;101306.78;5034853;28;20037;-87
2023/08/28 07:03:52;;;;;;;6.28;3.00;;;;;;;13.15;100.00;101306.72;5037240;28;20043;-86
2023/08/28 07:06:19;;;;;;;8.68;3.42;;;;;;;13.41;100.00;101311.75;5035960;28;20033;-88
2023/08/28 07:08:45;;;;;;;6.53;3.28;;;;;;;13.66;100.00;101302.63;5052274;28;20120;-88
2023/08/28 07:11:10;;;;;;;7.43;3.35;;;;;;;13.74;100.00;101307.94;5035360;28;20056;-89
2023/08/28 07:13:36;;;;;;;8.48;3.60;;;;;;;13.70;100.00;101303.94;5035775;28;20180;-86
2023/08/28 07:16:03;;;;;;;12.52;6.25;;;;;;;13.68;100.00;101306.81;5051591;28;20033;-87
2023/08/28 07:18:29;;;;;;;10.18;3.78;;;;;;;13.63;100.00;101310.06;5035144;28;20033;-87
2023/08/28 07:20:54;;;;;;;8.23;3.90;;;;;;;13.54;100.00;101321.13;5052239;28;20094;-88
2023/08/28 07:23:25;;;;;;;8.23;3.67;;;;;;;13.48;100.00;101325.38;5052397;28;20110;-88
2023/08/28 07:25:54;;;;;;;7.28;4.03;;;;;;;13.45;100.00;101323.06;5052624;28;20036;-88
2023/08/28 07:28:20;;;;;;;7.57;3.50;;;;;;;13.39;100.00;101321.91;5019893;28;20029;-88
2023/08/28 07:30:48;;;;;;;9.10;3.35;;;;;;;13.34;100.00;101323.50;5051892;28;20575;-87
2023/08/28 07:33:16;;;;;;;7.18;2.70;;;;;;;13.28;100.00;101332.28;5053418;28;20021;-87
2023/08/28 07:35:50;;;;;;;7.18;3.28;;;;;;;13.32;100.00;101339.03;5057381;28;20428;-87
2023/08/28 07:38:22;;;;;;;7.25;2.72;;;;;;;13.35;100.00;101341.34;5055097;28;20064;-85
2023/08/28 07:40:51;;;;;;;8.82;3.20;;;;;;;13.33;100.00;101332.59;5056284;28;20041;-86
2023/08/28 07:43:18;;;;;;;7.00;2.97;;;;;;;13.35;100.00;101333.25;5039222;28;20039;-86
2023/08/28 07:45:45;;;;;;;6.88;2.88;;;;;;;13.41;100.00;101333.34;5055670;28;20079;-87
2023/08/28 07:48:12;;;;;;;6.25;2.85;;;;;;;13.52;100.00;101340.22;5055738;28;20083;-87
2023/08/28 07:50:41;;;;;;;5.13;2.60;;;;;;;13.64;100.00;101333.34;5055714;28;20067;-87
2023/08/28 07:53:08;;;;;;;5.30;2.38;;;;;;;13.75;100.00;101342.06;5057175;28;20355;-86
2023/08/28 07:55:34;;;;;;;5.05;2.53;;;;;;;13.73;100.00;101336.81;5072048;28;20029;-87
2023/08/28 07:57:59;;;;;;;6.03;2.42;;;;;;;13.70;100.00;101341.75;5038434;28;20509;-87
2023/08/28 08:00:25;;;;;;;5.20;2.80;;;;;;;13.74;100.00;101332.28;5037814;28;20099;-86
2023/08/28 08:02:51;;;;;;;5.03;2.45;;;;;;;14.18;100.00;101329.63;5055490;28;20025;-91
2023/08/28 08:05:18;;;;;;;4.38;2.30;;;;;;;14.47;100.00;101328.81;5056836;28;20045;-92
2023/08/28 08:07:44;;;;;;;7.20;2.30;;;;;;;14.64;100.00;101329.47;5057728;28;20460;-92
2023/08/28 08:10:11;;;;;;;4.22;2.30;;;;;;;14.66;100.00;101322.00;5058627;28;20029;-93
2023/08/28 08:12:38;;;;;;;4.78;2.17;;;;;;;14.77;100.00;101323.38;5040930;28;20471;-93
2023/08/28 08:15:06;;;;;;;5.13;2.58;;;;;;;17.30;100.00;101336.06;5058032;28;20486;-93
2023/08/28 08:17:33;;;;;;;4.00;2.28;;;;;;;18.85;100.00;101328.41;5041571;28;20043;-91
2023/08/28 08:19:59;;;;;;;3.42;2.20;;;;;;;19.44;100.00;101310.00;5050551;28;20108;-92
2023/08/28 08:22:24;;;;;;;3.47;1.80;;;;;;;17.79;100.00;101321.31;5051128;28;20498;-92
2023/08/28 08:24:51;;;;;;;4.35;2.38;;;;;;;17.48;100.00;101327.31;5058204;28;20135;-91
2023/08/28 08:27:17;;;;;;;5.40;2.03;;;;;;;17.21;100.00;101313.69;5059002;28;20025;-92
2023/08/28 08:29:43;;;;;;;5.32;2.25;;;;;;;16.77;100.00;101319.59;5059460;28;20476;-87
2023/08/28 08:32:08;;;;;;;3.90;2.10;;;;;;;17.83;100.00;101330.69;5061982;28;20025;-88
2023/08/28 08:34:34;;;;;;;6.07;2.22;;;;;;;17.08;100.00;101324.53;5069710;28;20085;-87
2023/08/28 08:36:59;;;;;;;3.28;1.73;;;;;;;16.65;100.00;101320.16;5074554;28;20033;-90
2023/08/28 08:39:25;;;;;;;5.32;2.10;;;;;;;16.97;100.00;101317.81;5055624;28;20029;-91
2023/08/28 08:41:51;;;;;;;4.10;2.20;;;;;;;16.89;100.00;101309.84;5058062;28;20028;-92
2023/08/28 08:44:16;;;;;;;4.35;2.00;;;;;;;16.38;100.00;101316.50;5056231;28;20025;-93
2023/08/28 08:46:46;;;;;;;4.03;2.00;;;;;;;15.82;100.00;101313.81;5055341;28;20033;-91
2023/08/28 08:49:18;;;;;;;3.35;2.05;;;;;;;15.66;100.00;101305.94;5040257;28;20033;-90
2023/08/28 08:51:44;;;;;;;5.30;2.20;;;;;;;15.75;100.00;101311.06;5039363;28;20025;-90
2023/08/28 08:54:18;;;;;;;4.53;2.08;;;;;;;16.39;100.00;101314.63;5038793;28;20087;-88
2023/08/28 08:56:54;;;;;;;4.80;1.90;;;;;;;17.24;100.00;101310.56;5040355;28;20067;-88
2023/08/28 08:59:21;;;;;;;3.13;1.92;;;;;;;18.02;100.00;101297.22;5024170;28;20049;-89
2023/08/28 09:01:47;;;;;;;3.17;1.58;;;;;;;17.40;100.00;101309.31;5059617;28;20072;-92
2023/08/28 09:04:13;;;;;;;3.90;1.98;;;;;;;19.26;100.00;101297.94;5041461;28;20103;-91
2023/08/28 09:06:39;;;;;;;3.30;1.67;;;;;;;18.33;100.00;101303.81;5055320;28;20459;-89
2023/08/28 09:09:08;;;;;;;2.65;1.40;;;;;;;17.95;100.00;101301.81;5039049;28;20056;-93
2023/08/28 09:11:36;;;;;;;3.25;1.80;;;;;;;18.99;100.00;101310.09;5039645;28;20060;-91
2023/08/28 09:14:02;;;;;;;3.08;1.60;;;;;;;19.40;100.00;101306.06;5056702;28;20028;-94
2023/08/28 09:16:27;;;;;;;2.13;1.33;;;;;;;19.82;100.00;101298.19;5056679;28;20365;-92
2023/08/28 09:18:53;;;;;;;3.85;1.58;;;;;;;21.66;95.19;101293.31;5055726;28;20029;-90
2023/08/28 09:21:19;;;;;;;4.10;1.50;;;;;;;19.97;95.89;101291.31;5039102;28;20029;-88
2023/08/28 09:23:50;;;;;;;2.95;1.58;;;;;;;19.95;97.18;101293.44;5055832;28;20036;-88
2023/08/28 09:26:20;;;;;;;2.63;1.90;;;;;;;21.57;84.22;101292.00;5047584;28;20040;-90
2023/08/28 09:28:59;;;;;;;3.13;2.20;;;;;;;21.85;83.25;101280.34;5057529;28;20025;-89
2023/08/28 09:31:31;;;;;;;3.95;1.95;;;;;;;20.79;85.74;101280.09;5075853;28;20020;-91
2023/08/28 09:34:00;;;;;;;3.00;1.87;;;;;;;19.99;90.97;101270.09;5073853;28;20029;-91
2023/08/28 09:36:27;;;;;;;2.97;1.70;;;;;;;19.13;96.14;101269.94;5023698;28;20099;-91
2023/08/28 09:39:01;;;;;;;2.85;1.90;;;;;;;18.94;98.67;101269.03;5038948;28;20104;-91
2023/08/28 09:41:46;;;;;;;3.38;2.00;;;;;;;19.21;96.11;101267.81;5022294;28;20033;-92
2023/08/28 09:44:14;;;;;;;3.10;1.80;;;;;;;19.53;94.77;101263.16;5037559;28;20037;-90
2023/08/28 09:46:50;;;;;;;2.50;1.60;;;;;;;19.32;89.13;101269.00;5038831;28;20025;-91
2023/08/28 09:49:20;;;;;;;3.70;1.80;;;;;;;18.95;94.13;101257.09;5054291;28;20040;-91
2023/08/28 09:51:52;;;;;;;3.60;2.00;;;;;;;18.78;92.76;101246.69;5038566;28;20086;-92
2023/08/28 09:54:22;;;;;;;4.10;2.30;;;;;;;18.89;90.90;101246.00;5039293;28;20064;-93
2023/08/28 09:56:48;;;;;;;3.20;2.15;;;;;;;19.38;91.14;101250.91;5055649;28;20063;-92
2023/08/28 09:59:17;;;;;;;5.72;2.10;;;;;;;20.19;84.36;101249.91;5056047;28;20116;-92
2023/08/28 10:01:52;;;;;;;4.03;2.00;;;;;;;20.63;80.50;101248.78;5054992;28;20040;-92
2023/08/28 10:04:20;;;;;;;4.15;1.83;;;;;;;20.69;81.42;101252.47;5088530;28;20057;-93
2023/08/28 10:06:49;;;;;;;2.90;1.60;;;;;;;20.48;81.11;101248.34;5038481;28;20052;-94
2023/08/28 10:09:22;;;;;;;2.65;1.55;;;;;;;20.27;78.44;101233.25;5056047;28;20037;-92
2023/08/28 10:12:01;;;;;;;2.97;2.03;;;;;;;20.15;81.65;101235.06;5055925;28;20447;-91
2023/08/28 10:14:29;;;;;;;2.75;1.85;;;;;;;20.46;79.46;101242.25;5054767;28;20053;-92
2023/08/28 10:17:05;;;;;;;4.00;1.83;;;;;;;20.60;78.64;101242.94;5038117;28;20107;-92
2023/08/28 10:19:44;;;;;;;2.90;1.70;;;;;;;20.33;75.94;101231.50;5055002;28;20476;-91
2023/08/28 10:22:12;;;;;;;3.45;1.70;;;;;;;20.16;78.30;101253.09;5055524;28;20556;-92
2023/08/28 10:24:57;;;;;;;3.30;1.88;;;;;;;19.88;79.13;101231.81;5039304;28;20086;-89
2023/08/28 10:27:23;;;;;;;3.65;1.63;;;;;;;19.43;81.48;101237.44;5058695;28;20056;-91
2023/08/28 10:29:49;;;;;;;2.40;1.70;;;;;;;19.39;82.52;101247.94;5063474;28;20108;-91
2023/08/28 10:32:15;;;;;;;4.18;1.63;;;;;;;19.38;81.92;101246.28;5063887;28;20040;-92
2023/08/28 10:34:44;;;;;;;6.10;2.45;;;;;;;19.38;82.23;101245.47;5040276;28;20534;-89
2023/08/28 10:37:10;;;;;;;4.70;1.77;;;;;;;19.26;82.35;101248.88;5054695;28;20065;-92
2023/08/28 10:39:42;;;;;;;2.65;1.65;;;;;;;18.93;84.89;101240.13;5055150;28;20029;-88
2023/08/28 10:42:16;;;;;;;3.63;2.00;;;;;;;18.22;89.00;101239.16;5021955;28;20029;-89
2023/08/28 10:44:43;;;;;;;4.18;1.90;;;;;;;17.69;92.20;101247.41;5053998;28;20032;-88
2023/08/28 10:47:09;;;;;;;5.03;1.77;;;;;;;17.32;96.09;101257.88;5052573;28;20033;-90
2023/08/28 10:49:34;;;;;;;3.70;1.95;;;;;;;17.03;99.40;101254.50;5053908;28;20033;-91
2023/08/28 10:52:02;;;;;;;4.15;2.17;;;;;;;17.03;100.00;101245.50;5060278;28;20468;-91
2023/08/28 10:54:43;;;;;;;4.55;2.00;;;;;;;17.07;100.00;101244.91;5054806;28;20031;-90
2023/08/28 10:57:42;;;;;;;;;;;;;;;;;;;;;
2023/08/28 11:00:20;;;;;;;3.95;2.17;;;;;;;17.20;100.00;101254.97;5054384;28;20029;-91
2023/08/28 11:03:18;;;;;;;;;;;;;;;;;;;;;
2023/08/28 11:06:35;;;;;;;2.80;1.80;;;;;;;16.98;100.00;101273.28;5032695;28;20037;-92
2023/08/28 11:09:26;;;;;;;5.03;2.10;;;;;;;17.22;100.00;101284.63;5054454;28;20029;-92
2023/08/28 11:11:52;;;;;;;4.57;1.90;;;;;;;17.44;100.00;101277.97;5054495;28;20033;-92
2023/08/28 11:14:18;;;;;;;5.88;1.90;;;;;;;17.79;100.00;101273.16;5055064;28;20060;-90
2023/08/28 11:16:44;;;;;;;3.55;1.70;;;;;;;18.05;100.00;101278.75;5053973;28;20052;-91
2023/08/28 11:19:12;;;;;;;3.95;1.85;;;;;;;18.56;100.00;101265.22;5021908;28;20064;-92
2023/08/28 11:21:44;;;;;;;4.00;1.88;;;;;;;19.21;96.73;101256.06;5037389;28;20132;-91
2023/08/28 11:24:26;;;;;;;3.60;1.90;;;;;;;19.93;90.03;101268.28;5021337;28;20037;-91